Time;durP1;ratioP1;P1;durP2;ratioP2;P2;SDS_P1;SDS_P2;PMS_P1;PMS_P2;Temp;Humidity;BMP_temperature;BMP_pressure;BME280_temperature;BME280_humidity;BME280_pressure;Samples;Min_cycle;Max_cycle;Signal;HPM_P1;HPM_P2
2023/09/04 00:00:46;;;;;;;7.37;4.00;;;16.40;99.90;;;;;;5070024;28;20454;-59
2023/09/04 00:03:13;;;;;;;5.50;3.80;;;16.50;99.90;;;;;;5070400;28;20442;-54
2023/09/04 00:05:40;;;;;;;4.30;3.50;;;16.50;99.90;;;;;;5075319;28;20669;-58
2023/09/04 00:08:07;;;;;;;5.00;4.10;;;16.50;99.90;;;;;;5069945;28;20436;-57
2023/09/04 00:10:34;;;;;;;5.47;4.10;;;16.50;99.90;;;;;;5070148;28;20455;-58
2023/09/04 00:13:02;;;;;;;5.00;3.90;;;16.40;99.90;;;;;;5075572;28;20483;-57
2023/09/04 00:15:29;;;;;;;8.07;3.60;;;16.40;99.90;;;;;;5075316;28;20435;-58
2023/09/04 00:17:56;;;;;;;5.33;4.07;;;16.40;99.90;;;;;;5067278;28;20574;-58
2023/09/04 00:20:24;;;;;;;8.20;3.90;;;16.40;99.90;;;;;;5069003;28;20463;-60
2023/09/04 00:22:53;;;;;;;7.13;4.50;;;16.30;99.90;;;;;;5074939;28;20475;-58
2023/09/04 00:25:20;;;;;;;4.63;4.20;;;16.30;99.90;;;;;;5070831;28;20436;-60
2023/09/04 00:27:49;;;;;;;4.53;3.43;;;16.30;99.90;;;;;;5073082;28;20486;-60
2023/09/04 00:30:17;;;;;;;4.40;3.40;;;16.30;99.90;;;;;;5070201;28;20473;-56
2023/09/04 00:32:44;;;;;;;3.37;3.07;;;16.30;99.90;;;;;;5073802;28;20443;-61
2023/09/04 00:35:13;;;;;;;5.30;4.37;;;16.30;99.90;;;;;;5074718;28;20503;-58
2023/09/04 00:37:40;;;;;;;5.87;4.00;;;16.20;99.90;;;;;;5074931;28;20478;-54
2023/09/04 00:40:10;;;;;;;5.70;3.90;;;16.20;99.90;;;;;;5074789;28;20451;-57
2023/09/04 00:42:37;;;;;;;4.40;3.70;;;16.20;99.90;;;;;;5073711;28;20474;-60
2023/09/04 00:45:11;;;;;;;5.67;3.43;;;16.20;99.90;;;;;;5071393;28;20443;-60
2023/09/04 00:47:41;;;;;;;4.70;3.20;;;16.10;99.90;;;;;;5072021;28;20805;-60
2023/09/04 00:50:10;;;;;;;7.87;4.53;;;16.10;99.90;;;;;;5072822;28;20478;-59
2023/09/04 00:52:37;;;;;;;5.10;3.90;;;16.10;99.90;;;;;;5076264;28;20450;-58
2023/09/04 00:55:06;;;;;;;12.10;4.73;;;16.10;99.90;;;;;;5070327;28;20445;-59
2023/09/04 00:57:34;;;;;;;5.00;3.70;;;16.10;99.90;;;;;;5074521;28;20479;-60
2023/09/04 01:00:05;;;;;;;4.47;3.70;;;16.10;99.90;;;;;;5072416;28;20432;-60
2023/09/04 01:02:32;;;;;;;4.13;3.13;;;16.10;99.90;;;;;;5071543;28;20429;-60
2023/09/04 01:05:01;;;;;;;6.63;3.57;;;16.10;99.90;;;;;;5074870;28;20423;-56
2023/09/04 01:07:27;;;;;;;4.90;3.73;;;16.00;99.90;;;;;;5074764;28;20467;-58
2023/09/04 01:09:55;;;;;;;5.97;4.13;;;16.10;99.90;;;;;;5073633;28;20466;-60
2023/09/04 01:12:25;;;;;;;12.83;5.00;;;16.00;99.90;;;;;;5074475;28;20443;-58
2023/09/04 01:14:55;;;;;;;3.57;3.27;;;16.00;99.90;;;;;;5072794;28;20434;-59
2023/09/04 01:17:26;;;;;;;6.07;4.00;;;16.00;99.90;;;;;;5074868;28;20514;-55
2023/09/04 01:19:53;;;;;;;4.20;3.60;;;15.90;99.90;;;;;;5074944;28;20449;-58
2023/09/04 01:22:21;;;;;;;3.90;3.53;;;15.90;99.90;;;;;;5071739;28;20501;-59
2023/09/04 01:24:48;;;;;;;4.20;2.80;;;15.90;99.90;;;;;;5072644;28;20503;-61
2023/09/04 01:27:22;;;;;;;5.97;3.77;;;15.90;99.90;;;;;;5070555;28;20463;-54
2023/09/04 01:29:57;;;;;;;4.90;3.70;;;15.90;99.90;;;;;;5075303;28;20432;-58
2023/09/04 01:32:33;;;;;;;4.67;3.73;;;15.90;99.90;;;;;;5075015;28;20470;-56
2023/09/04 01:35:03;;;;;;;5.57;3.63;;;15.90;99.90;;;;;;5074988;28;20423;-61
2023/09/04 01:37:31;;;;;;;4.83;4.23;;;15.90;99.90;;;;;;5074875;28;20459;-61
2023/09/04 01:39:59;;;;;;;4.53;3.90;;;15.80;99.90;;;;;;5071582;28;20471;-58
2023/09/04 01:42:26;;;;;;;5.30;3.67;;;15.90;99.90;;;;;;5073393;28;20461;-60
2023/09/04 01:44:53;;;;;;;5.13;4.03;;;15.80;99.90;;;;;;5076688;28;20435;-59
2023/09/04 01:47:20;;;;;;;4.60;4.17;;;15.80;99.90;;;;;;5074631;28;20470;-57
2023/09/04 01:49:49;;;;;;;4.20;3.77;;;15.80;99.90;;;;;;5070380;28;20492;-57
2023/09/04 01:52:15;;;;;;;6.53;4.10;;;15.70;99.90;;;;;;5077259;28;20439;-60
2023/09/04 01:54:44;;;;;;;4.23;3.83;;;15.70;99.90;;;;;;5078728;28;20468;-60
2023/09/04 01:57:10;;;;;;;5.03;4.30;;;15.70;99.90;;;;;;5078566;28;20506;-56
2023/09/04 01:59:40;;;;;;;4.47;3.60;;;15.70;99.90;;;;;;5076639;28;20451;-60
2023/09/04 02:02:07;;;;;;;4.83;3.80;;;15.70;99.90;;;;;;5071810;28;20467;-59
2023/09/04 02:04:34;;;;;;;5.07;3.60;;;15.70;99.90;;;;;;5074858;28;20447;-59
2023/09/04 02:07:01;;;;;;;8.10;3.73;;;15.70;99.90;;;;;;5075465;28;20469;-59
2023/09/04 02:09:28;;;;;;;6.03;3.87;;;15.70;99.90;;;;;;5076442;28;20435;-58
2023/09/04 02:11:58;;;;;;;3.77;3.47;;;15.70;99.90;;;;;;5078256;28;20474;-59
2023/09/04 02:14:24;;;;;;;5.10;3.70;;;15.60;99.90;;;;;;5071008;28;20443;-60
2023/09/04 02:16:51;;;;;;;4.53;3.50;;;15.60;99.90;;;;;;5075171;28;20555;-55
2023/09/04 02:19:18;;;;;;;5.17;3.20;;;15.60;99.90;;;;;;5079034;28;20474;-54
2023/09/04 02:21:45;;;;;;;6.60;3.70;;;15.70;99.90;;;;;;5077603;28;20471;-60
2023/09/04 02:24:12;;;;;;;8.80;4.00;;;15.60;99.90;;;;;;5078151;28;20454;-55
2023/09/04 02:26:39;;;;;;;4.73;3.67;;;15.60;99.90;;;;;;5075437;28;20467;-60
2023/09/04 02:29:07;;;;;;;3.83;3.43;;;15.60;99.90;;;;;;5073174;28;20530;-59
2023/09/04 02:31:34;;;;;;;6.40;4.00;;;15.60;99.90;;;;;;5078023;28;20443;-57
2023/09/04 02:34:00;;;;;;;4.87;3.87;;;15.60;99.90;;;;;;5077728;28;20482;-60
2023/09/04 02:36:27;;;;;;;3.67;3.23;;;15.60;99.90;;;;;;5077858;28;20591;-55
2023/09/04 02:38:55;;;;;;;3.40;3.10;;;15.50;99.90;;;;;;5073183;28;20494;-60
2023/09/04 02:41:24;;;;;;;4.13;2.90;;;15.50;99.90;;;;;;5072811;28;20450;-57
2023/09/04 02:43:51;;;;;;;4.87;3.57;;;15.60;99.90;;;;;;5077641;28;20431;-61
2023/09/04 02:46:19;;;;;;;4.50;3.73;;;15.50;99.90;;;;;;5077930;28;20467;-59
2023/09/04 02:48:46;;;;;;;4.67;3.53;;;15.50;99.90;;;;;;5077686;28;20432;-58
2023/09/04 02:51:13;;;;;;;3.97;3.20;;;15.50;99.90;;;;;;5075535;28;20471;-59
2023/09/04 02:53:40;;;;;;;3.67;3.33;;;15.40;99.90;;;;;;5072918;28;20467;-59
2023/09/04 02:56:06;;;;;;;5.67;4.10;;;15.40;99.90;;;;;;5071702;28;20479;-59
2023/09/04 02:58:33;;;;;;;3.80;3.50;;;15.50;99.90;;;;;;5076293;28;20478;-59
2023/09/04 03:01:00;;;;;;;5.17;3.07;;;15.50;99.90;;;;;;5072529;28;20455;-58
2023/09/04 03:03:28;;;;;;;6.50;4.07;;;15.40;99.90;;;;;;5074801;28;20439;-60
2023/09/04 03:05:56;;;;;;;5.27;3.70;;;15.40;99.90;;;;;;5071246;28;20453;-59
2023/09/04 03:08:23;;;;;;;4.30;4.00;;;15.40;99.90;;;;;;5077661;28;20456;-58
2023/09/04 03:10:50;;;;;;;6.77;4.60;;;15.40;99.90;;;;;;5077362;28;20515;-56
2023/09/04 03:13:17;;;;;;;4.17;3.70;;;15.40;99.90;;;;;;5077711;28;20447;-58
2023/09/04 03:15:44;;;;;;;5.00;3.50;;;15.40;99.90;;;;;;5077584;28;20490;-59
2023/09/04 03:18:11;;;;;;;8.97;3.97;;;15.30;99.90;;;;;;5077692;28;20486;-55
2023/09/04 03:20:39;;;;;;;6.10;3.90;;;15.30;99.90;;;;;;5073812;28;20455;-56
2023/09/04 03:23:07;;;;;;;4.13;3.67;;;15.30;99.90;;;;;;5077351;28;20454;-58
2023/09/04 03:25:37;;;;;;;4.57;3.57;;;15.30;99.90;;;;;;5077776;28;20474;-57
2023/09/04 03:28:04;;;;;;;5.10;3.77;;;15.30;99.90;;;;;;5077147;28;20454;-59
2023/09/04 03:30:33;;;;;;;5.57;3.20;;;15.30;99.90;;;;;;5074042;28;20427;-59
2023/09/04 03:33:00;;;;;;;6.03;4.07;;;15.30;99.90;;;;;;5076939;28;20443;-58
2023/09/04 03:35:27;;;;;;;7.33;4.00;;;15.30;99.90;;;;;;5076837;28;20467;-53
2023/09/04 03:37:55;;;;;;;4.33;3.93;;;15.20;99.90;;;;;;5076489;28;20503;-55
2023/09/04 03:40:23;;;;;;;3.77;3.40;;;15.20;99.90;;;;;;5072442;28;21029;-57
2023/09/04 03:42:51;;;;;;;5.70;4.40;;;15.30;99.90;;;;;;5076597;28;20475;-55
2023/09/04 03:45:17;;;;;;;5.13;3.77;;;15.20;99.90;;;;;;5074296;28;20451;-56
2023/09/04 03:47:46;;;;;;;5.10;4.30;;;15.20;99.90;;;;;;5076150;28;20439;-60
2023/09/04 03:50:13;;;;;;;4.80;4.30;;;15.20;99.90;;;;;;5076865;28;20459;-56
2023/09/04 03:52:41;;;;;;;7.67;3.97;;;15.20;99.90;;;;;;5075962;28;20457;-58
2023/09/04 03:55:11;;;;;;;5.60;4.07;;;15.20;99.90;;;;;;5074297;28;20443;-60
2023/09/04 03:57:39;;;;;;;7.37;4.77;;;15.20;99.90;;;;;;5075740;28;20479;-58
2023/09/04 04:00:14;;;;;;;5.93;4.17;;;15.20;99.90;;;;;;5069346;28;20787;-56
2023/09/04 04:02:41;;;;;;;5.30;4.63;;;15.20;99.90;;;;;;5075986;28;20497;-58
2023/09/04 04:05:09;;;;;;;6.07;4.30;;;15.20;99.90;;;;;;5075774;28;20475;-61
2023/09/04 04:07:36;;;;;;;6.10;4.33;;;15.20;99.90;;;;;;5073599;28;20439;-55
2023/09/04 04:10:04;;;;;;;4.93;4.20;;;15.20;99.90;;;;;;5073626;28;20444;-60
2023/09/04 04:12:33;;;;;;;5.40;4.23;;;15.20;99.90;;;;;;5075771;28;20412;-59
2023/09/04 04:15:03;;;;;;;5.77;3.40;;;15.20;99.90;;;;;;5076796;28;20466;-51
2023/09/04 04:17:30;;;;;;;4.50;4.10;;;15.20;99.90;;;;;;5075987;28;20511;-57
2023/09/04 04:19:57;;;;;;;5.83;4.27;;;15.20;99.90;;;;;;5074259;28;20448;-56
2023/09/04 04:22:27;;;;;;;5.70;4.50;;;15.20;99.90;;;;;;5074117;28;20454;-58
2023/09/04 04:24:54;;;;;;;5.90;4.40;;;15.20;99.90;;;;;;5074849;28;20474;-54
2023/09/04 04:27:21;;;;;;;5.07;4.57;;;15.20;99.90;;;;;;5075480;28;20463;-56
2023/09/04 04:29:52;;;;;;;6.37;5.70;;;15.20;99.90;;;;;;5071374;28;20435;-60
2023/09/04 04:32:19;;;;;;;6.10;4.10;;;15.20;99.90;;;;;;5073189;28;20550;-61
2023/09/04 04:34:46;;;;;;;3.83;3.33;;;15.20;99.90;;;;;;5072384;28;20454;-59
2023/09/04 04:37:13;;;;;;;4.37;3.97;;;15.20;99.90;;;;;;5075531;28;20546;-59
2023/09/04 04:39:40;;;;;;;5.90;4.40;;;15.20;99.90;;;;;;5071756;28;20443;-60
2023/09/04 04:42:06;;;;;;;5.07;4.17;;;15.20;99.90;;;;;;5072685;28;20452;-60
2023/09/04 04:44:33;;;;;;;8.20;4.70;;;15.20;99.90;;;;;;5069242;28;20470;-57
2023/09/04 04:47:05;;;;;;;5.33;4.17;;;15.20;99.90;;;;;;5075071;28;20430;-55
2023/09/04 04:49:31;;;;;;;6.57;5.40;;;15.20;99.90;;;;;;5075350;28;20416;-54
2023/09/04 04:51:59;;;;;;;4.10;3.67;;;15.20;99.90;;;;;;5073957;28;20471;-56
2023/09/04 04:54:26;;;;;;;4.73;4.30;;;15.20;99.90;;;;;;5076048;28;20423;-57
2023/09/04 04:56:53;;;;;;;6.40;4.63;;;15.30;99.90;;;;;;5072445;28;20462;-57
2023/09/04 04:59:20;;;;;;;5.80;4.87;;;15.30;99.90;;;;;;5073970;28;20586;-56
2023/09/04 05:01:47;;;;;;;7.00;4.53;;;15.20;99.90;;;;;;5071348;28;20450;-58
2023/09/04 05:04:17;;;;;;;6.67;4.37;;;15.20;99.90;;;;;;5074496;28;20447;-54
2023/09/04 05:06:46;;;;;;;5.07;4.57;;;15.30;99.90;;;;;;5073783;28;20451;-55
2023/09/04 05:09:13;;;;;;;6.57;5.03;;;15.30;99.90;;;;;;5070292;28;20454;-59
2023/09/04 05:11:40;;;;;;;5.50;4.00;;;15.30;99.90;;;;;;5069898;28;20473;-56
2023/09/04 05:14:06;;;;;;;6.27;4.27;;;15.40;99.90;;;;;;5074478;28;20451;-59
2023/09/04 05:16:33;;;;;;;7.43;4.93;;;15.40;99.90;;;;;;5075565;28;20474;-59
2023/09/04 05:19:03;;;;;;;6.77;5.20;;;15.40;99.90;;;;;;5078085;28;20502;-60
2023/09/04 05:21:31;;;;;;;6.50;4.67;;;15.50;99.90;;;;;;5076983;28;20427;-59
2023/09/04 05:23:58;;;;;;;6.63;4.80;;;15.50;99.90;;;;;;5073261;28;20475;-60
2023/09/04 05:26:25;;;;;;;7.97;5.57;;;15.50;99.90;;;;;;5073275;28;20498;-58
2023/09/04 05:28:51;;;;;;;7.00;6.07;;;15.50;99.90;;;;;;5079752;28;20444;-60
2023/09/04 05:31:18;;;;;;;19.30;5.00;;;15.50;99.90;;;;;;5079683;28;20447;-59
2023/09/04 05:33:45;;;;;;;14.93;7.37;;;15.60;99.90;;;;;;5075383;28;20935;-58
2023/09/04 05:36:12;;;;;;;13.60;6.33;;;15.70;99.90;;;;;;5070599;28;20490;-60
2023/09/04 05:38:41;;;;;;;13.57;6.00;;;15.60;99.90;;;;;;5078306;28;20479;-58
2023/09/04 05:41:08;;;;;;;7.80;6.47;;;15.70;99.90;;;;;;5075801;28;20459;-60
2023/09/04 05:43:34;;;;;;;7.43;5.50;;;15.70;99.90;;;;;;5077048;28;20420;-61
2023/09/04 05:46:01;;;;;;;9.20;5.83;;;15.80;99.90;;;;;;5068436;28;20554;-60
2023/09/04 05:48:31;;;;;;;8.23;5.80;;;15.80;99.90;;;;;;5064232;28;20506;-60
2023/09/04 05:50:58;;;;;;;8.23;5.17;;;15.80;99.90;;;;;;5067605;28;20474;-60
2023/09/04 05:53:25;;;;;;;10.87;5.80;;;15.80;99.90;;;;;;5079062;28;20463;-58
2023/09/04 05:56:06;;;;;;;7.57;6.87;;;15.80;99.90;;;;;;5079298;28;20511;-58
2023/09/04 05:58:33;;;;;;;8.03;6.87;;;15.90;99.90;;;;;;5074561;28;20506;-59
2023/09/04 06:01:00;;;;;;;9.00;5.70;;;16.00;99.90;;;;;;5078729;28;20419;-58
2023/09/04 06:03:27;;;;;;;6.40;5.30;;;16.00;99.90;;;;;;5077369;28;20764;-60
2023/09/04 06:05:54;;;;;;;13.90;5.30;;;16.00;99.90;;;;;;5071659;28;20477;-56
2023/09/04 06:08:21;;;;;;;7.57;5.50;;;16.10;99.90;;;;;;5076277;28;20455;-60
2023/09/04 06:10:48;;;;;;;8.70;6.33;;;16.20;99.90;;;;;;5076262;28;20463;-60
2023/09/04 06:13:16;;;;;;;5.87;5.27;;;16.20;99.90;;;;;;5072291;28;20474;-60
2023/09/04 06:15:44;;;;;;;8.17;6.27;;;16.20;99.90;;;;;;5070937;28;20475;-60
2023/09/04 06:18:10;;;;;;;9.50;6.40;;;16.30;99.90;;;;;;5069527;28;20470;-59
2023/09/04 06:20:37;;;;;;;13.93;6.30;;;16.40;99.90;;;;;;5069141;28;20470;-58
2023/09/04 06:23:04;;;;;;;7.57;5.47;;;16.40;99.90;;;;;;5073054;28;20487;-60
2023/09/04 06:25:32;;;;;;;8.83;5.70;;;16.50;99.90;;;;;;5066951;28;20474;-60
2023/09/04 06:27:59;;;;;;;6.13;5.53;;;16.60;99.90;;;;;;5075108;28;20528;-59
2023/09/04 06:30:27;;;;;;;8.93;6.43;;;16.60;99.90;;;;;;5076134;28;20497;-60
2023/09/04 06:32:54;;;;;;;10.07;7.23;;;16.70;99.90;;;;;;5068790;28;20551;-60
2023/09/04 06:35:21;;;;;;;8.10;5.90;;;16.80;99.90;;;;;;5062407;28;20534;-61
2023/09/04 06:37:48;;;;;;;9.13;6.27;;;16.90;99.90;;;;;;5069126;28;20453;-59
2023/09/04 06:40:15;;;;;;;14.70;6.53;;;18.70;99.90;;;;;;5064851;28;20490;-60
2023/09/04 06:42:42;;;;;;;10.87;7.63;;;17.00;99.90;;;;;;5062746;28;20478;-59
2023/09/04 06:45:10;;;;;;;9.13;7.57;;;17.10;99.90;;;;;;5062368;28;20500;-59
2023/09/04 06:47:40;;;;;;;8.07;5.90;;;17.20;99.90;;;;;;5064488;28;20510;-60
2023/09/04 06:50:08;;;;;;;7.83;6.67;;;17.20;99.90;;;;;;5068110;28;20946;-59
2023/09/04 06:52:35;;;;;;;9.50;7.10;;;17.30;99.90;;;;;;5067643;28;20495;-60
2023/09/04 06:55:02;;;;;;;8.10;7.17;;;17.40;99.90;;;;;;5063432;28;20479;-60
2023/09/04 06:57:29;;;;;;;11.07;7.80;;;17.40;99.90;;;;;;5065316;28;20486;-62
2023/09/04 06:59:57;;;;;;;9.90;6.50;;;17.50;99.90;;;;;;5064350;28;20514;-61
2023/09/04 07:02:23;;;;;;;10.90;7.80;;;17.60;99.90;;;;;;5071267;28;20454;-59
2023/09/04 07:04:52;;;;;;;7.80;6.50;;;17.70;99.90;;;;;;5072276;28;20501;-60
2023/09/04 07:07:18;;;;;;;12.30;6.47;;;17.80;99.90;;;;;;5066078;28;20443;-60
2023/09/04 07:09:45;;;;;;;10.20;7.60;;;17.90;99.90;;;;;;5068138;28;20470;-59
2023/09/04 07:12:13;;;;;;;9.17;6.47;;;17.90;99.90;;;;;;5063524;28;20522;-60
2023/09/04 07:14:40;;;;;;;8.20;6.60;;;18.00;99.90;;;;;;5060454;28;20900;-60
2023/09/04 07:17:07;;;;;;;11.00;5.50;;;18.10;99.90;;;;;;5060205;28;20764;-61
2023/09/04 07:19:34;;;;;;;8.83;6.17;;;18.20;99.90;;;;;;5074828;28;20494;-59
2023/09/04 07:22:04;;;;;;;4.73;4.33;;;18.30;99.90;;;;;;5073910;28;20499;-57
2023/09/04 07:24:32;;;;;;;7.13;5.60;;;18.40;99.90;;;;;;5075360;28;20451;-58
2023/09/04 07:26:59;;;;;;;5.23;4.40;;;18.50;99.90;;;;;;5075865;28;20454;-57
2023/09/04 07:29:26;;;;;;;6.27;5.37;;;18.60;99.90;;;;;;5066625;28;20924;-60
2023/09/04 07:31:55;;;;;;;5.30;4.57;;;18.70;99.90;;;;;;5063864;28;20518;-60
2023/09/04 07:34:22;;;;;;;5.30;4.80;;;18.80;99.90;;;;;;5074843;28;20471;-59
2023/09/04 07:36:49;;;;;;;7.90;4.90;;;18.80;99.90;;;;;;5067663;28;20475;-59
2023/09/04 07:39:19;;;;;;;5.63;4.70;;;18.90;99.90;;;;;;5073975;28;20517;-59
2023/09/04 07:41:46;;;;;;;7.80;4.73;;;19.10;99.90;;;;;;5071849;28;20454;-59
2023/09/04 07:44:13;;;;;;;6.83;4.97;;;19.10;99.90;;;;;;5067696;28;20447;-58
2023/09/04 07:46:41;;;;;;;4.63;4.13;;;19.20;99.90;;;;;;5069095;28;20435;-59
2023/09/04 07:49:07;;;;;;;6.80;4.87;;;19.30;99.90;;;;;;5059118;28;20439;-61
2023/09/04 07:51:35;;;;;;;6.00;4.47;;;19.30;99.90;;;;;;5059620;28;20478;-60
2023/09/04 07:54:02;;;;;;;4.20;3.23;;;19.50;99.90;;;;;;5059844;28;20530;-60
2023/09/04 07:56:30;;;;;;;9.33;4.00;;;19.50;99.90;;;;;;5059912;28;20439;-60
2023/09/04 07:58:57;;;;;;;8.43;3.73;;;19.70;99.90;;;;;;5059721;28;20491;-61
2023/09/04 08:01:24;;;;;;;9.33;3.07;;;19.80;99.90;;;;;;5059828;28;20564;-60
2023/09/04 08:03:51;;;;;;;4.53;3.20;;;19.90;99.90;;;;;;5059063;28;20514;-60
2023/09/04 08:06:20;;;;;;;7.43;2.70;;;20.10;99.90;;;;;;5059048;28;20459;-60
2023/09/04 08:08:46;;;;;;;3.90;2.47;;;20.70;99.90;;;;;;5059075;28;20776;-61
2023/09/04 08:11:13;;;;;;;3.37;2.80;;;22.40;99.90;;;;;;5058356;28;20439;-60
2023/09/04 08:13:42;;;;;;;2.30;2.10;;;24.30;99.90;;;;;;5057669;28;20530;-62
2023/09/04 08:16:08;;;;;;;2.63;2.37;;;26.00;99.90;;;;;;5057561;28;20849;-59
2023/09/04 08:18:35;;;;;;;3.30;2.00;;;28.00;99.90;;;;;;5056986;28;20474;-61
2023/09/04 08:21:03;;;;;;;2.73;2.20;;;29.70;99.90;;;;;;5056463;28;20471;-61
2023/09/04 08:23:30;;;;;;;3.40;2.53;;;31.20;93.70;;;;;;5056364;28;20470;-61
2023/09/04 08:26:00;;;;;;;4.00;2.40;;;32.40;85.10;;;;;;5056500;28;20493;-62
2023/09/04 08:28:27;;;;;;;6.60;2.37;;;33.30;76.90;;;;;;5057266;28;20459;-61
2023/09/04 08:30:56;;;;;;;2.67;2.27;;;34.00;70.00;;;;;;5055773;28;20919;-61
2023/09/04 08:33:23;;;;;;;3.67;2.47;;;34.00;65.90;;;;;;5056557;28;20521;-61
2023/09/04 08:35:50;;;;;;;2.40;2.20;;;34.50;63.30;;;;;;5056057;28;20447;-61
2023/09/04 08:38:17;;;;;;;3.83;2.30;;;34.60;60.50;;;;;;5055351;28;20467;-59
2023/09/04 08:40:45;;;;;;;4.00;1.97;;;34.60;59.50;;;;;;5055421;28;20515;-58
2023/09/04 08:43:13;;;;;;;2.20;1.83;;;34.40;59.20;;;;;;5055049;28;20475;-59
2023/09/04 08:45:40;;;;;;;2.30;1.97;;;34.20;58.40;;;;;;5055207;28;20428;-61
2023/09/04 08:48:11;;;;;;;2.77;2.10;;;33.90;58.40;;;;;;5055438;28;20473;-61
2023/09/04 08:50:39;;;;;;;2.77;2.00;;;33.70;58.40;;;;;;5055811;28;20838;-60
2023/09/04 08:53:06;;;;;;;2.80;2.53;;;33.80;58.50;;;;;;5055687;28;20899;-60
2023/09/04 08:55:33;;;;;;;4.37;3.03;;;33.90;57.80;;;;;;5054486;28;20458;-60
2023/09/04 08:58:01;;;;;;;2.67;2.40;;;33.80;57.90;;;;;;5055266;28;20526;-60
2023/09/04 09:00:29;;;;;;;2.60;2.27;;;33.70;58.10;;;;;;5055040;28;20983;-63
2023/09/04 09:02:58;;;;;;;3.13;2.40;;;33.80;58.60;;;;;;5055116;28;20535;-60
2023/09/04 09:05:27;;;;;;;2.63;2.30;;;33.80;58.00;;;;;;5055562;28;20832;-62
2023/09/04 09:07:55;;;;;;;2.67;1.87;;;33.70;58.20;;;;;;5054949;28;20532;-59
2023/09/04 09:10:23;;;;;;;5.20;2.33;;;33.50;57.40;;;;;;5054780;28;20471;-61
2023/09/04 09:12:50;;;;;;;2.93;2.30;;;33.30;57.80;;;;;;5055915;28;20505;-63
2023/09/04 09:15:18;;;;;;;2.73;2.50;;;33.30;58.00;;;;;;5055498;28;20534;-59
2023/09/04 09:17:53;;;;;;;5.97;2.47;;;33.40;58.00;;;;;;5055723;28;20448;-60
2023/09/04 09:20:34;;;;;;;2.70;2.20;;;33.50;58.00;;;;;;5055258;28;20561;-60
2023/09/04 09:23:01;;;;;;;3.13;2.67;;;33.50;57.30;;;;;;5055191;28;20920;-60
2023/09/04 09:25:29;;;;;;;3.03;2.40;;;33.60;56.90;;;;;;5055482;28;20548;-58
2023/09/04 09:28:01;;;;;;;3.73;2.90;;;33.60;57.40;;;;;;5055437;28;20446;-61
2023/09/04 09:30:35;;;;;;;4.30;2.20;;;33.50;57.20;;;;;;5054940;28;20464;-61
2023/09/04 09:33:05;;;;;;;4.43;2.00;;;33.60;57.50;;;;;;5054961;28;20522;-59
2023/09/04 09:35:34;;;;;;;3.83;3.20;;;33.50;57.70;;;;;;5055217;28;20991;-58
2023/09/04 09:38:01;;;;;;;2.20;2.00;;;33.60;57.90;;;;;;5055579;28;20470;-61
2023/09/04 09:40:28;;;;;;;4.23;2.60;;;33.80;57.30;;;;;;5055271;28;20478;-60
2023/09/04 09:42:55;;;;;;;3.30;2.57;;;32.70;56.20;;;;;;5054975;28;20514;-60
2023/09/04 09:45:22;;;;;;;3.80;2.30;;;33.90;56.70;;;;;;5054001;28;20510;-60
2023/09/04 09:47:52;;;;;;;3.67;2.50;;;33.80;56.60;;;;;;5055195;28;20868;-57
2023/09/04 09:50:20;;;;;;;3.40;2.70;;;33.70;56.00;;;;;;5055291;28;20511;-62
2023/09/04 09:53:02;;;;;;;2.00;1.90;;;33.80;55.80;;;;;;5055184;28;20849;-60
2023/09/04 09:55:30;;;;;;;2.50;2.10;;;33.60;56.90;;;;;;5055631;28;20502;-59
2023/09/04 09:57:58;;;;;;;3.30;2.60;;;33.70;57.70;;;;;;5055067;28;20447;-62
2023/09/04 10:00:26;;;;;;;2.97;2.67;;;33.60;57.90;;;;;;5054937;28;21023;-56
2023/09/04 10:02:54;;;;;;;2.87;2.50;;;33.60;57.60;;;;;;5054742;28;20467;-57
2023/09/04 10:05:24;;;;;;;4.20;2.53;;;33.50;56.90;;;;;;5055996;28;20459;-60
2023/09/04 10:07:59;;;;;;;4.80;2.50;;;33.80;56.40;;;;;;5058864;28;20502;-60
2023/09/04 10:10:28;;;;;;;3.47;2.40;;;33.90;56.40;;;;;;5058760;28;20808;-57
2023/09/04 10:13:00;;;;;;;2.57;2.37;;;33.80;56.50;;;;;;5058592;28;20525;-61
2023/09/04 10:15:28;;;;;;;3.83;3.47;;;33.70;56.60;;;;;;5058710;28;20518;-58
2023/09/04 10:18:05;;;;;;;3.27;2.70;;;33.50;56.50;;;;;;5060004;28;20529;-60
2023/09/04 10:20:33;;;;;;;3.27;2.70;;;33.30;57.20;;;;;;5060969;28;20536;-62
2023/09/04 10:23:06;;;;;;;2.53;2.10;;;33.00;57.60;;;;;;5059921;28;20508;-60
2023/09/04 10:25:42;;;;;;;5.30;4.00;;;32.80;58.20;;;;;;5060296;28;20511;-62
2023/09/04 10:28:18;;;;;;;5.10;2.90;;;32.80;58.00;;;;;;5061001;28;20506;-61
2023/09/04 10:30:49;;;;;;;2.43;2.20;;;32.70;57.90;;;;;;5060992;28;20854;-60
2023/09/04 10:33:16;;;;;;;2.93;2.63;;;32.60;57.90;;;;;;5060389;28;20423;-60
2023/09/04 10:35:43;;;;;;;7.60;4.00;;;32.50;58.20;;;;;;5059851;28;20519;-60
2023/09/04 10:38:11;;;;;;;2.97;2.67;;;32.40;57.40;;;;;;5060790;28;20916;-61
2023/09/04 10:40:40;;;;;;;4.00;2.70;;;32.30;57.70;;;;;;5060439;28;21034;-61
2023/09/04 10:43:09;;;;;;;4.43;3.70;;;32.20;57.50;;;;;;5060245;28;20447;-61
2023/09/04 10:45:36;;;;;;;4.30;3.03;;;32.00;58.20;;;;;;5059654;28;20561;-61
2023/09/04 10:48:04;;;;;;;4.93;2.70;;;31.80;58.20;;;;;;5059914;28;20502;-60
2023/09/04 10:50:35;;;;;;;3.57;2.57;;;31.50;58.80;;;;;;5060017;28;20980;-61
2023/09/04 10:53:04;;;;;;;9.10;3.00;;;31.10;59.10;;;;;;5060247;28;20462;-60
2023/09/04 10:55:32;;;;;;;3.53;3.23;;;30.80;60.20;;;;;;5060154;28;20457;-62
2023/09/04 10:58:01;;;;;;;3.93;3.53;;;30.60;60.70;;;;;;5059405;28;20451;-58
2023/09/04 11:00:30;;;;;;;3.67;2.90;;;30.20;60.10;;;;;;5059032;28;20493;-55
2023/09/04 11:03:00;;;;;;;7.10;4.17;;;29.80;62.10;;;;;;5059441;28;20469;-59
2023/09/04 11:05:27;;;;;;;3.57;3.27;;;29.60;62.60;;;;;;5060183;28;20450;-57
2023/09/04 11:07:54;;;;;;;3.37;3.07;;;29.40;63.60;;;;;;5060247;28;20447;-60
2023/09/04 11:10:39;;;;;;;5.37;3.47;;;29.10;64.00;;;;;;5060450;28;20482;-60
2023/09/04 11:13:10;;;;;;;3.83;2.80;;;29.00;64.00;;;;;;5059452;28;20501;-59
2023/09/04 11:15:37;;;;;;;5.70;3.50;;;28.80;64.90;;;;;;5059820;28;20818;-61
2023/09/04 11:18:13;;;;;;;4.23;3.43;;;28.50;65.50;;;;;;5057892;28;20435;-61
2023/09/04 11:20:45;;;;;;;2.80;2.60;;;28.40;65.50;;;;;;5057681;28;20550;-60
2023/09/04 11:23:12;;;;;;;3.50;2.77;;;28.20;68.20;;;;;;5058161;28;20415;-56
2023/09/04 11:25:39;;;;;;;3.93;2.80;;;28.10;67.70;;;;;;5057197;28;20462;-61
2023/09/04 11:28:08;;;;;;;2.63;2.30;;;28.10;67.40;;;;;;5057928;28;20439;-61
2023/09/04 11:30:36;;;;;;;2.67;2.47;;;27.90;68.00;;;;;;5057559;28;20443;-61
2023/09/04 11:33:03;;;;;;;7.60;3.10;;;27.80;69.90;;;;;;5058265;28;20493;-63
2023/09/04 11:35:30;;;;;;;3.00;2.70;;;27.80;68.20;;;;;;5057464;28;20439;-61
2023/09/04 11:37:58;;;;;;;4.90;3.10;;;27.60;68.80;;;;;;5057526;28;20467;-61
2023/09/04 11:40:33;;;;;;;4.10;3.03;;;27.50;71.20;;;;;;5057924;28;20544;-61
2023/09/04 11:43:00;;;;;;;3.17;2.43;;;27.50;71.10;;;;;;5057135;28;20454;-61
2023/09/04 11:45:28;;;;;;;3.70;3.27;;;27.30;71.80;;;;;;5057676;28;20750;-61
2023/09/04 11:47:56;;;;;;;3.83;3.20;;;27.20;70.80;;;;;;5057035;28;20451;-63
2023/09/04 11:50:23;;;;;;;3.37;2.57;;;27.20;70.40;;;;;;5057750;28;20467;-62
2023/09/04 11:52:52;;;;;;;4.90;2.97;;;27.10;71.20;;;;;;5057252;28;20493;-61
2023/09/04 11:55:22;;;;;;;4.90;2.53;;;27.00;72.50;;;;;;5057420;28;20543;-61
2023/09/04 11:57:49;;;;;;;4.27;3.23;;;27.00;72.90;;;;;;5057534;28;20427;-60
2023/09/04 12:00:16;;;;;;;4.77;3.20;;;27.00;71.60;;;;;;5057221;28;20483;-61
2023/09/04 12:02:45;;;;;;;3.57;2.90;;;26.90;73.20;;;;;;5057216;28;21027;-62
2023/09/04 12:05:14;;;;;;;3.37;2.53;;;26.80;72.00;;;;;;5057986;28;20978;-61
2023/09/04 12:07:41;;;;;;;6.10;3.90;;;26.70;72.90;;;;;;5059223;28;20423;-62
2023/09/04 12:10:10;;;;;;;3.67;3.00;;;26.70;72.40;;;;;;5059096;28;20458;-61
2023/09/04 12:12:37;;;;;;;6.70;3.03;;;26.70;73.30;;;;;;5056763;28;20495;-61
2023/09/04 12:15:05;;;;;;;5.90;2.57;;;26.70;72.80;;;;;;5057675;28;20472;-58
2023/09/04 12:17:32;;;;;;;3.20;2.37;;;26.70;74.00;;;;;;5057127;28;20443;-61
2023/09/04 12:20:05;;;;;;;3.63;2.80;;;26.70;75.00;;;;;;5057279;28;20479;-61
2023/09/04 12:22:32;;;;;;;3.97;3.13;;;26.80;75.10;;;;;;5057415;28;20486;-61
2023/09/04 12:25:00;;;;;;;3.63;2.70;;;26.80;73.30;;;;;;5057085;28;20516;-61
2023/09/04 12:27:29;;;;;;;3.40;2.30;;;26.70;73.30;;;;;;5056015;28;20527;-58
2023/09/04 12:29:56;;;;;;;3.80;2.77;;;26.70;72.90;;;;;;5056903;28;20501;-57
2023/09/04 12:32:24;;;;;;;4.20;3.00;;;26.70;72.60;;;;;;5056884;28;20447;-61
2023/09/04 12:34:59;;;;;;;3.67;3.00;;;26.70;72.80;;;;;;5057217;28;20507;-62
2023/09/04 12:37:30;;;;;;;3.33;2.70;;;26.80;73.90;;;;;;5057427;28;20427;-62
2023/09/04 12:39:57;;;;;;;3.70;2.93;;;26.80;71.90;;;;;;5057648;28;20463;-61
2023/09/04 12:42:24;;;;;;;3.70;2.93;;;26.60;71.60;;;;;;5057922;28;20451;-61
2023/09/04 12:44:54;;;;;;;4.90;3.80;;;26.70;71.80;;;;;;5058661;28;20447;-61
2023/09/04 12:47:21;;;;;;;4.63;3.73;;;26.70;70.50;;;;;;5057736;28;20502;-61
2023/09/04 12:49:49;;;;;;;3.13;2.60;;;26.60;70.40;;;;;;5056966;28;20446;-62